Time;durP1;ratioP1;P1;durP2;ratioP2;P2;SDS_P1;SDS_P2;PMS_P1;PMS_P2;Temp;Humidity;BMP_temperature;BMP_pressure;BME280_temperature;BME280_humidity;BME280_pressure;Samples;Min_cycle;Max_cycle;Signal;HPM_P1;HPM_P2
2023/06/09 00:00:41;;;;;;;10.65;9.70;;;25.30;78.80;;;;;;5030836;28;20044;-78
2023/06/09 00:03:08;;;;;;;9.85;9.15;;;25.30;79.20;;;;;;5031733;28;20375;-79
2023/06/09 00:05:34;;;;;;;10.43;9.52;;;25.30;79.20;;;;;;5031425;28;20485;-79
2023/06/09 00:08:01;;;;;;;11.02;10.02;;;25.20;79.50;;;;;;5031642;28;20041;-78
2023/06/09 00:10:27;;;;;;;10.38;9.57;;;25.20;79.60;;;;;;5047497;28;20034;-78
2023/06/09 00:12:54;;;;;;;10.23;9.32;;;25.20;79.80;;;;;;5031280;28;20033;-78
2023/06/09 00:15:20;;;;;;;9.80;9.00;;;25.20;80.20;;;;;;5032127;28;20370;-79
2023/06/09 00:17:47;;;;;;;9.70;8.90;;;25.20;79.90;;;;;;5015076;28;20044;-78
2023/06/09 00:20:14;;;;;;;10.38;9.43;;;25.10;80.10;;;;;;5032076;28;20040;-78
2023/06/09 00:22:43;;;;;;;9.93;9.10;;;25.10;80.20;;;;;;5047600;28;20030;-77
2023/06/09 00:25:11;;;;;;;10.15;9.15;;;25.00;80.00;;;;;;5047188;28;20026;-79
2023/06/09 00:27:37;;;;;;;10.18;9.30;;;25.00;80.40;;;;;;5032242;28;20037;-79
2023/06/09 00:30:03;;;;;;;9.68;8.88;;;25.00;80.30;;;;;;5030829;28;20032;-78
2023/06/09 00:32:29;;;;;;;10.20;9.20;;;25.10;80.50;;;;;;5031065;28;20040;-78
2023/06/09 00:34:56;;;;;;;10.13;9.20;;;25.10;80.50;;;;;;5031232;28;20021;-79
2023/06/09 00:37:22;;;;;;;9.45;8.70;;;25.00;80.50;;;;;;5030875;28;20044;-78
2023/06/09 00:39:48;;;;;;;9.45;8.63;;;24.90;81.00;;;;;;5032268;28;20028;-79
2023/06/09 00:42:14;;;;;;;9.80;8.88;;;24.90;81.10;;;;;;5030297;28;20052;-79
2023/06/09 00:44:40;;;;;;;9.38;8.57;;;24.90;81.30;;;;;;5031000;28;20040;-77
2023/06/09 00:47:07;;;;;;;9.57;8.77;;;24.90;81.50;;;;;;5032947;28;20049;-79
2023/06/09 00:49:34;;;;;;;9.38;8.65;;;24.80;81.50;;;;;;5084033;28;20386;-79
2023/06/09 00:52:00;;;;;;;9.38;8.57;;;24.70;81.80;;;;;;5035311;28;20033;-77
2023/06/09 00:54:26;;;;;;;9.43;8.38;;;24.60;82.10;;;;;;5031060;28;20030;-78
2023/06/09 00:56:52;;;;;;;8.52;7.88;;;24.70;82.20;;;;;;5030375;28;20052;-78
2023/06/09 00:59:18;;;;;;;8.95;8.15;;;24.60;82.10;;;;;;5031037;28;20033;-79
2023/06/09 01:01:44;;;;;;;9.35;8.43;;;24.70;82.10;;;;;;5029966;28;20033;-79
2023/06/09 01:04:12;;;;;;;9.02;8.30;;;24.60;82.30;;;;;;5032187;28;20026;-78
2023/06/09 01:07:00;;;;;;;8.98;8.15;;;24.60;82.20;;;;;;5030587;28;20041;-78
2023/06/09 01:09:38;;;;;;;9.25;8.20;;;24.60;82.20;;;;;;5030893;28;20471;-79
2023/06/09 01:12:20;;;;;;;9.18;8.38;;;24.60;82.30;;;;;;5030386;28;20533;-78
2023/06/09 01:15:20;;;;;;;9.45;8.65;;;24.70;82.20;;;;;;5014305;28;20394;-78
2023/06/09 01:17:49;;;;;;;9.15;8.30;;;24.70;81.80;;;;;;4953773;28;20046;-78
2023/06/09 01:20:32;;;;;;;9.50;8.60;;;24.60;82.30;;;;;;4955042;28;20123;-79
2023/06/09 01:23:04;;;;;;;9.80;8.52;;;24.70;82.10;;;;;;4957102;28;20031;-79
2023/06/09 01:25:38;;;;;;;9.10;8.35;;;24.60;81.80;;;;;;4954803;28;20030;-79
2023/06/09 01:28:06;;;;;;;8.75;8.05;;;24.70;82.10;;;;;;4939817;28;20549;-78
2023/06/09 01:30:33;;;;;;;9.13;8.32;;;24.60;82.40;;;;;;4954363;28;20519;-79
2023/06/09 01:33:02;;;;;;;9.27;8.50;;;24.60;82.20;;;;;;4955186;28;20045;-78
2023/06/09 01:35:28;;;;;;;9.63;8.50;;;24.60;82.40;;;;;;4956738;28;20532;-78
2023/06/09 01:37:54;;;;;;;8.82;8.02;;;24.60;82.50;;;;;;4958599;28;20053;-79
2023/06/09 01:40:20;;;;;;;8.75;8.15;;;24.60;82.00;;;;;;4957790;28;20035;-78
2023/06/09 01:42:46;;;;;;;9.10;8.20;;;24.60;82.50;;;;;;4958535;28;20039;-78
2023/06/09 01:45:12;;;;;;;9.13;8.32;;;24.60;82.40;;;;;;4941470;28;20041;-78
2023/06/09 01:47:38;;;;;;;9.57;8.50;;;24.70;82.70;;;;;;4965210;28;20050;-79
2023/06/09 01:50:13;;;;;;;9.20;8.40;;;24.70;82.50;;;;;;4961503;28;20034;-78
2023/06/09 01:53:11;;;;;;;8.98;8.15;;;24.60;82.80;;;;;;4956200;28;20035;-79
2023/06/09 01:55:39;;;;;;;9.40;8.48;;;24.60;83.30;;;;;;5011096;28;20037;-79
2023/06/09 01:58:13;;;;;;;8.82;8.02;;;24.50;83.80;;;;;;5034258;28;20025;-78
2023/06/09 02:00:39;;;;;;;9.48;8.70;;;24.30;84.40;;;;;;5033552;28;20038;-79
2023/06/09 02:03:06;;;;;;;9.48;8.48;;;24.20;85.00;;;;;;5014300;28;20422;-78
2023/06/09 02:05:32;;;;;;;9.40;8.60;;;24.10;85.40;;;;;;5038269;28;20033;-78
2023/06/09 02:07:58;;;;;;;10.70;9.00;;;24.00;85.60;;;;;;5038011;28;20049;-78
2023/06/09 02:10:24;;;;;;;9.10;8.18;;;24.00;85.70;;;;;;5053657;28;20028;-78
2023/06/09 02:12:51;;;;;;;9.80;8.90;;;24.00;86.00;;;;;;5032443;28;20052;-79
2023/06/09 02:15:18;;;;;;;9.80;9.00;;;23.90;86.10;;;;;;5031588;28;20041;-79
2023/06/09 02:17:45;;;;;;;9.93;9.05;;;23.90;86.30;;;;;;5032124;28;20037;-79
2023/06/09 02:20:12;;;;;;;10.40;8.80;;;23.90;86.20;;;;;;5033073;28;20022;-79
2023/06/09 02:22:38;;;;;;;9.30;8.40;;;23.90;86.60;;;;;;5048678;28;20094;-79
2023/06/09 02:25:05;;;;;;;10.07;8.80;;;23.90;86.30;;;;;;5033535;28;20029;-79
2023/06/09 02:27:31;;;;;;;9.23;8.52;;;23.90;86.50;;;;;;5031927;28;20045;-79
2023/06/09 02:29:57;;;;;;;10.18;9.30;;;23.90;86.40;;;;;;5032372;28;20037;-79
2023/06/09 02:32:23;;;;;;;9.60;8.55;;;23.90;86.50;;;;;;5031309;28;20034;-79
2023/06/09 02:34:49;;;;;;;9.63;8.48;;;24.00;86.60;;;;;;5032064;28;20390;-78
2023/06/09 02:37:15;;;;;;;11.80;9.43;;;24.00;86.50;;;;;;5016331;28;20033;-79
2023/06/09 02:39:42;;;;;;;10.25;9.35;;;24.00;86.70;;;;;;5033208;28;20378;-79
2023/06/09 02:42:08;;;;;;;9.60;8.65;;;24.00;86.00;;;;;;5046040;28;20033;-79
2023/06/09 02:44:37;;;;;;;10.60;9.25;;;24.00;85.90;;;;;;5066715;28;20037;-78
2023/06/09 02:47:06;;;;;;;9.77;8.90;;;23.90;86.30;;;;;;5035296;28;20061;-79
2023/06/09 02:49:32;;;;;;;10.30;9.23;;;24.00;86.40;;;;;;5052916;28;20036;-79
2023/06/09 02:51:58;;;;;;;10.02;9.13;;;23.90;86.30;;;;;;5038552;28;20029;-79
2023/06/09 02:54:24;;;;;;;10.35;9.45;;;24.00;86.20;;;;;;5034147;28;20033;-79
2023/06/09 02:56:52;;;;;;;9.43;8.65;;;23.90;86.40;;;;;;5032721;28;20030;-79
2023/06/09 02:59:18;;;;;;;9.40;8.50;;;23.80;86.70;;;;;;5034243;28;20025;-78
2023/06/09 03:01:45;;;;;;;9.93;8.93;;;23.70;86.90;;;;;;5031747;28;20037;-79
2023/06/09 03:04:11;;;;;;;9.00;8.15;;;23.70;87.00;;;;;;5032953;28;20390;-79
2023/06/09 03:06:39;;;;;;;9.43;8.48;;;23.60;87.10;;;;;;5033330;28;20028;-78
2023/06/09 03:09:05;;;;;;;10.15;8.93;;;23.60;87.30;;;;;;5034030;28;20474;-78
2023/06/09 03:11:31;;;;;;;8.98;8.13;;;23.60;87.00;;;;;;5033771;28;20044;-78
2023/06/09 03:13:57;;;;;;;10.57;9.10;;;23.60;87.30;;;;;;5032794;28;20471;-79
2023/06/09 03:16:23;;;;;;;9.57;8.68;;;23.60;87.20;;;;;;5033069;28;20037;-78
2023/06/09 03:18:49;;;;;;;9.05;7.97;;;23.60;87.20;;;;;;5032559;28;20025;-78
2023/06/09 03:21:16;;;;;;;9.43;8.45;;;23.50;87.70;;;;;;5015756;28;20033;-78
2023/06/09 03:23:42;;;;;;;10.35;8.68;;;23.40;87.90;;;;;;5032416;28;20414;-78
2023/06/09 03:26:08;;;;;;;8.85;8.15;;;23.40;87.90;;;;;;5032109;28;20510;-78
2023/06/09 03:28:34;;;;;;;8.90;8.20;;;23.40;88.10;;;;;;5015533;28;20056;-79
2023/06/09 03:31:00;;;;;;;8.52;7.78;;;23.30;88.50;;;;;;5032828;28;20570;-79
2023/06/09 03:33:26;;;;;;;9.52;8.13;;;23.40;88.70;;;;;;5033517;28;20033;-79
2023/06/09 03:35:52;;;;;;;12.40;7.97;;;23.40;88.80;;;;;;5031698;28;20036;-78
2023/06/09 03:38:18;;;;;;;8.35;7.55;;;23.40;88.80;;;;;;5032150;28;20398;-79
2023/06/09 03:40:44;;;;;;;12.88;7.65;;;23.40;89.00;;;;;;5065007;28;20025;-78
2023/06/09 03:43:13;;;;;;;12.70;7.18;;;23.40;88.90;;;;;;5048823;28;20038;-79
2023/06/09 03:45:39;;;;;;;7.78;6.97;;;23.40;88.90;;;;;;5032628;28;20033;-79
2023/06/09 03:48:06;;;;;;;8.25;7.45;;;23.40;88.90;;;;;;5055842;28;20057;-78
2023/06/09 03:50:32;;;;;;;10.23;7.20;;;23.40;88.80;;;;;;5031284;28;20038;-79
2023/06/09 03:52:58;;;;;;;8.73;7.93;;;23.20;89.10;;;;;;5032095;28;20029;-79
2023/06/09 03:55:25;;;;;;;7.45;6.85;;;23.20;89.30;;;;;;5031834;28;20026;-78
2023/06/09 03:57:51;;;;;;;7.65;7.00;;;23.20;89.40;;;;;;5030511;28;20033;-78
2023/06/09 04:00:17;;;;;;;8.18;7.47;;;23.10;89.80;;;;;;5031085;28;20041;-78
2023/06/09 04:02:43;;;;;;;9.63;8.02;;;23.10;89.90;;;;;;5032855;28;20037;-78
2023/06/09 04:05:10;;;;;;;8.90;7.97;;;23.20;89.80;;;;;;5031636;28;20426;-78
2023/06/09 04:07:36;;;;;;;8.48;7.70;;;23.10;89.90;;;;;;5014890;28;20050;-78
2023/06/09 04:10:02;;;;;;;9.15;7.80;;;23.10;90.10;;;;;;5031977;28;20024;-79
2023/06/09 04:12:29;;;;;;;9.48;7.70;;;23.20;89.90;;;;;;5014805;28;20042;-79
2023/06/09 04:14:55;;;;;;;8.68;7.97;;;23.10;89.90;;;;;;5014910;28;20398;-79
2023/06/09 04:17:24;;;;;;;8.27;7.45;;;23.10;90.10;;;;;;5032018;28;20045;-78
2023/06/09 04:19:51;;;;;;;7.93;7.22;;;23.00;90.20;;;;;;5031092;28;20044;-78
2023/06/09 04:22:17;;;;;;;10.70;7.88;;;23.00;90.40;;;;;;5031156;28;20033;-79
2023/06/09 04:24:43;;;;;;;10.73;7.68;;;23.00;90.50;;;;;;5031502;28;20033;-78
2023/06/09 04:27:13;;;;;;;9.85;8.85;;;22.90;90.80;;;;;;5031120;28;20048;-78
2023/06/09 04:29:40;;;;;;;8.73;7.93;;;22.90;91.00;;;;;;5032584;28;20040;-78
2023/06/09 04:32:07;;;;;;;8.38;7.68;;;22.90;91.10;;;;;;5030492;28;20048;-78
2023/06/09 04:34:39;;;;;;;9.38;7.25;;;22.90;91.20;;;;;;5031029;28;20036;-79
2023/06/09 04:37:08;;;;;;;9.63;8.63;;;22.90;91.20;;;;;;5031830;28;20037;-79
2023/06/09 04:39:35;;;;;;;7.93;7.20;;;23.00;91.20;;;;;;5047323;28;20026;-79
2023/06/09 04:42:03;;;;;;;8.35;7.55;;;23.00;91.30;;;;;;5047385;28;20386;-79
2023/06/09 04:44:32;;;;;;;9.93;7.15;;;22.90;91.30;;;;;;5032356;28;20028;-79
2023/06/09 04:47:05;;;;;;;8.55;7.20;;;22.90;91.50;;;;;;5031989;28;20053;-79
2023/06/09 04:49:31;;;;;;;7.97;7.13;;;22.90;91.40;;;;;;5050568;28;20143;-78
2023/06/09 04:51:57;;;;;;;9.07;7.65;;;22.90;91.50;;;;;;5037498;28;20037;-78
2023/06/09 04:54:28;;;;;;;8.32;7.53;;;22.80;91.60;;;;;;5031248;28;20022;-79
2023/06/09 04:56:57;;;;;;;9.82;8.25;;;22.80;91.70;;;;;;5031852;28;20489;-78
2023/06/09 04:59:24;;;;;;;9.35;8.43;;;22.80;91.90;;;;;;5014916;28;20036;-78
2023/06/09 05:01:52;;;;;;;8.48;7.78;;;22.70;92.00;;;;;;5030076;28;20494;-78
2023/06/09 05:04:18;;;;;;;8.65;7.78;;;22.80;92.00;;;;;;5030963;28;20034;-78
2023/06/09 05:06:45;;;;;;;8.95;8.05;;;22.70;92.30;;;;;;5030478;28;20056;-78
2023/06/09 05:09:11;;;;;;;9.27;7.72;;;22.60;92.50;;;;;;5032768;28;20049;-78
2023/06/09 05:11:37;;;;;;;11.10;8.82;;;22.70;92.50;;;;;;5034840;28;20474;-78
2023/06/09 05:14:06;;;;;;;9.77;7.40;;;22.70;92.60;;;;;;5035059;28;20033;-78
2023/06/09 05:16:33;;;;;;;8.50;7.63;;;22.70;92.40;;;;;;5033882;28;20037;-79
2023/06/09 05:18:59;;;;;;;9.40;8.50;;;22.70;92.50;;;;;;5034710;28;20394;-79
2023/06/09 05:21:25;;;;;;;9.18;8.00;;;22.70;92.80;;;;;;5035723;28;20370;-79
2023/06/09 05:23:52;;;;;;;9.20;8.50;;;22.70;92.90;;;;;;5034678;28;20044;-78
2023/06/09 05:26:19;;;;;;;10.02;8.63;;;22.80;92.80;;;;;;5034251;28;20052;-79
2023/06/09 05:28:48;;;;;;;13.10;7.85;;;22.90;92.70;;;;;;5018015;28;20056;-78
2023/06/09 05:31:15;;;;;;;12.60;8.75;;;23.00;92.70;;;;;;5033497;28;20490;-79
2023/06/09 05:33:42;;;;;;;8.75;7.85;;;22.90;93.00;;;;;;5035844;28;20038;-79
2023/06/09 05:36:08;;;;;;;9.65;8.70;;;22.90;93.00;;;;;;5017649;28;20125;-79
2023/06/09 05:38:34;;;;;;;8.95;7.90;;;22.80;93.20;;;;;;5051001;28;20509;-79
2023/06/09 05:41:01;;;;;;;8.75;7.75;;;22.80;93.10;;;;;;5035569;28;20033;-79
2023/06/09 05:43:27;;;;;;;8.40;7.60;;;22.80;93.20;;;;;;5034568;28;20033;-79
2023/06/09 05:45:54;;;;;;;8.55;7.32;;;22.70;93.60;;;;;;5033254;28;20030;-78
2023/06/09 05:48:20;;;;;;;8.90;7.63;;;22.80;93.50;;;;;;5046955;28;20517;-79
2023/06/09 05:50:46;;;;;;;8.98;8.07;;;22.90;93.60;;;;;;5048736;28;20505;-78
2023/06/09 05:53:12;;;;;;;9.30;8.40;;;22.80;93.60;;;;;;5034421;28;20040;-79
2023/06/09 05:55:38;;;;;;;8.57;7.78;;;22.90;93.60;;;;;;5035173;28;20355;-79
2023/06/09 05:58:05;;;;;;;12.00;8.20;;;22.80;93.80;;;;;;5034020;28;20049;-79
2023/06/09 06:00:31;;;;;;;8.50;7.70;;;22.80;93.90;;;;;;5034387;28;20041;-79
2023/06/09 06:03:00;;;;;;;11.48;7.93;;;22.90;93.80;;;;;;5033870;28;20029;-78
2023/06/09 06:05:26;;;;;;;12.00;8.18;;;22.90;93.90;;;;;;5033815;28;20386;-78
2023/06/09 06:07:52;;;;;;;10.15;8.13;;;22.90;94.10;;;;;;5034043;28;20042;-79
2023/06/09 06:10:18;;;;;;;8.95;8.05;;;22.90;94.10;;;;;;5033092;28;20037;-79
2023/06/09 06:12:45;;;;;;;9.00;8.10;;;22.90;94.20;;;;;;5033961;28;20036;-78
2023/06/09 06:15:11;;;;;;;8.40;7.57;;;22.80;94.60;;;;;;5034221;28;20033;-79
2023/06/09 06:17:37;;;;;;;9.88;7.75;;;22.90;94.90;;;;;;5017372;28;20022;-78
2023/06/09 06:20:05;;;;;;;9.73;7.82;;;22.90;94.40;;;;;;5034272;28;20040;-78
2023/06/09 06:22:31;;;;;;;9.45;7.78;;;22.80;94.70;;;;;;5034589;28;20033;-78
2023/06/09 06:24:57;;;;;;;9.05;8.10;;;22.80;94.90;;;;;;5050085;28;20026;-79
2023/06/09 06:27:23;;;;;;;12.55;8.15;;;22.80;94.90;;;;;;5034473;28;20052;-78
2023/06/09 06:29:49;;;;;;;12.95;9.05;;;23.00;94.90;;;;;;5034495;28;20026;-79
2023/06/09 06:32:16;;;;;;;8.82;7.97;;;23.00;94.90;;;;;;5034019;28;20056;-79
2023/06/09 06:34:42;;;;;;;8.65;7.45;;;23.00;94.90;;;;;;5033229;28;20044;-78
2023/06/09 06:37:08;;;;;;;9.40;8.40;;;23.10;95.00;;;;;;5066280;28;20402;-79
2023/06/09 06:39:34;;;;;;;13.85;8.27;;;23.20;95.10;;;;;;5049968;28;20030;-78
2023/06/09 06:42:00;;;;;;;8.43;7.63;;;23.10;95.20;;;;;;5034156;28;20033;-79
2023/06/09 06:44:26;;;;;;;52.42;15.65;;;23.10;95.50;;;;;;5032884;28;20033;-80
2023/06/09 06:46:52;;;;;;;18.08;9.15;;;23.20;95.70;;;;;;5016283;28;20061;-79
2023/06/09 06:49:18;;;;;;;9.15;8.25;;;23.20;95.90;;;;;;5052934;28;20467;-79
2023/06/09 06:51:44;;;;;;;10.50;8.82;;;23.20;96.10;;;;;;5039700;28;20036;-79
2023/06/09 06:54:11;;;;;;;11.65;8.70;;;23.20;96.20;;;;;;5034354;28;20427;-79
2023/06/09 06:56:37;;;;;;;9.27;7.68;;;23.40;96.10;;;;;;5032781;28;20029;-79
2023/06/09 06:59:03;;;;;;;9.77;8.40;;;23.50;96.00;;;;;;5033832;28;20033;-78
2023/06/09 07:01:31;;;;;;;18.55;10.48;;;23.60;96.00;;;;;;5033086;28;20037;-79
2023/06/09 07:03:57;;;;;;;9.70;8.70;;;23.70;96.00;;;;;;5033006;28;20026;-79
2023/06/09 07:06:23;;;;;;;11.50;9.05;;;23.70;96.20;;;;;;5032684;28;20037;-79
2023/06/09 07:08:51;;;;;;;8.98;8.07;;;23.90;96.80;;;;;;5032740;28;20041;-79
2023/06/09 07:11:17;;;;;;;14.45;8.77;;;23.90;96.40;;;;;;5033775;28;20029;-79
2023/06/09 07:13:43;;;;;;;9.45;8.55;;;24.00;96.90;;;;;;5033538;28;20462;-79
2023/06/09 07:16:09;;;;;;;10.77;8.27;;;24.20;96.40;;;;;;5033242;28;20040;-79
2023/06/09 07:18:36;;;;;;;9.75;8.75;;;24.30;96.60;;;;;;5033709;28;20029;-79
2023/06/09 07:21:02;;;;;;;9.27;8.35;;;24.40;96.40;;;;;;5031906;28;20052;-78
2023/06/09 07:23:28;;;;;;;11.55;8.98;;;24.60;96.80;;;;;;5065696;28;20026;-79
2023/06/09 07:25:55;;;;;;;15.35;8.38;;;25.00;96.30;;;;;;5033378;28;20052;-79
2023/06/09 07:28:21;;;;;;;9.68;8.48;;;25.30;95.60;;;;;;5031859;28;20053;-78
2023/06/09 07:30:47;;;;;;;11.23;8.35;;;25.60;95.40;;;;;;5032700;28;20038;-78
2023/06/09 07:33:14;;;;;;;9.70;8.50;;;25.70;95.30;;;;;;5032001;28;20029;-78
2023/06/09 07:35:40;;;;;;;10.13;8.23;;;25.80;95.30;;;;;;5031843;28;20037;-78
2023/06/09 07:38:08;;;;;;;13.02;8.20;;;25.90;95.40;;;;;;5033132;28;20022;-78
2023/06/09 07:40:34;;;;;;;11.27;8.55;;;25.90;95.30;;;;;;5033274;28;20045;-78
2023/06/09 07:43:00;;;;;;;9.35;8.40;;;25.80;95.70;;;;;;5031941;28;20382;-78
2023/06/09 07:45:27;;;;;;;12.32;8.18;;;25.80;95.70;;;;;;5032751;28;20033;-78
2023/06/09 07:47:53;;;;;;;33.65;11.55;;;25.90;95.70;;;;;;5041082;28;20667;-78
2023/06/09 07:50:19;;;;;;;17.17;9.52;;;26.00;95.70;;;;;;5051419;28;20033;-78
2023/06/09 07:52:45;;;;;;;10.00;8.82;;;26.30;95.40;;;;;;5031909;28;20029;-78
2023/06/09 07:55:12;;;;;;;12.27;9.52;;;26.50;95.20;;;;;;5031864;28;20029;-79
2023/06/09 07:57:38;;;;;;;11.52;9.07;;;26.60;95.00;;;;;;5031312;28;20379;-78
2023/06/09 08:00:06;;;;;;;10.07;8.82;;;26.80;95.00;;;;;;5031520;28;20041;-78
2023/06/09 08:02:32;;;;;;;9.85;8.85;;;27.00;95.10;;;;;;5032780;28;20030;-78
2023/06/09 08:04:59;;;;;;;10.88;9.75;;;27.20;95.70;;;;;;5031800;28;20034;-77
2023/06/09 08:07:26;;;;;;;11.38;9.25;;;27.60;95.30;;;;;;5031581;28;20500;-78
2023/06/09 08:09:52;;;;;;;12.07;10.52;;;28.10;95.20;;;;;;5032981;28;20045;-78
2023/06/09 08:12:18;;;;;;;12.05;10.90;;;28.40;94.70;;;;;;5047192;28;20041;-77
2023/06/09 08:14:44;;;;;;;11.68;9.93;;;28.50;93.30;;;;;;5031641;28;20458;-77
2023/06/09 08:17:11;;;;;;;15.88;10.13;;;28.50;92.50;;;;;;5030420;28;20044;-77
2023/06/09 08:19:37;;;;;;;13.30;9.32;;;28.20;92.70;;;;;;5015025;28;20509;-77
2023/06/09 08:22:03;;;;;;;10.68;8.70;;;27.90;93.00;;;;;;5032403;28;20037;-78
2023/06/09 08:24:29;;;;;;;10.45;8.77;;;27.80;92.90;;;;;;5048058;28;20040;-77
2023/06/09 08:26:58;;;;;;;13.88;9.02;;;27.40;93.10;;;;;;5030403;28;20040;-77
2023/06/09 08:29:24;;;;;;;9.55;8.57;;;27.50;93.50;;;;;;5032433;28;20033;-77
2023/06/09 08:31:50;;;;;;;10.20;8.77;;;27.40;93.40;;;;;;5047180;28;20474;-77
2023/06/09 08:34:16;;;;;;;10.63;9.02;;;27.40;93.60;;;;;;5031271;28;20037;-77
2023/06/09 08:36:42;;;;;;;9.93;9.00;;;27.50;93.80;;;;;;5030854;28;20376;-77
2023/06/09 08:39:09;;;;;;;10.63;8.68;;;27.60;93.60;;;;;;5032356;28;20044;-77
2023/06/09 08:41:37;;;;;;;10.60;9.30;;;27.50;94.10;;;;;;5047073;28;20022;-77
2023/06/09 08:44:06;;;;;;;11.95;8.98;;;27.70;93.80;;;;;;5030589;28;20052;-77
2023/06/09 08:46:36;;;;;;;12.63;9.20;;;27.90;93.50;;;;;;5030404;28;20052;-77
2023/06/09 08:49:02;;;;;;;9.98;9.18;;;28.10;93.60;;;;;;5049475;28;20049;-77
2023/06/09 08:51:28;;;;;;;10.50;9.60;;;28.20;93.00;;;;;;5041165;28;20051;-78
2023/06/09 08:53:54;;;;;;;13.55;9.68;;;28.30;93.10;;;;;;5030940;28;20393;-77
2023/06/09 08:56:21;;;;;;;11.02;9.93;;;28.50;93.10;;;;;;5030692;28;20029;-77
2023/06/09 08:58:48;;;;;;;11.68;10.65;;;28.60;92.50;;;;;;5030933;28;20026;-78
2023/06/09 09:01:18;;;;;;;12.27;11.02;;;28.70;92.20;;;;;;5014000;28;20029;-77
2023/06/09 09:03:46;;;;;;;13.20;11.65;;;28.90;92.20;;;;;;5014179;28;20486;-77
2023/06/09 09:06:13;;;;;;;16.95;12.10;;;29.00;92.10;;;;;;5031683;28;20029;-78
2023/06/09 09:08:39;;;;;;;12.20;11.10;;;28.90;91.70;;;;;;5030809;28;20061;-77
2023/06/09 09:11:06;;;;;;;14.43;11.85;;;29.00;91.80;;;;;;5030474;28;20033;-77
2023/06/09 09:13:32;;;;;;;13.07;12.02;;;29.20;91.90;;;;;;5032097;28;20038;-77
2023/06/09 09:16:01;;;;;;;13.55;12.18;;;29.40;91.30;;;;;;5013660;28;20391;-77
2023/06/09 09:18:31;;;;;;;13.65;12.35;;;29.40;91.30;;;;;;5014406;28;20025;-77
2023/06/09 09:20:58;;;;;;;13.55;12.25;;;29.40;91.20;;;;;;5031722;28;20025;-78
2023/06/09 09:23:31;;;;;;;12.77;11.68;;;29.50;90.90;;;;;;5046504;28;20037;-77
2023/06/09 09:26:02;;;;;;;14.73;11.25;;;29.50;91.30;;;;;;5047122;28;20036;-77
2023/06/09 09:28:42;;;;;;;13.00;11.57;;;29.50;91.10;;;;;;5046972;28;20052;-77
2023/06/09 09:31:09;;;;;;;14.07;11.38;;;29.50;91.20;;;;;;5030039;28;20470;-77
2023/06/09 09:33:38;;;;;;;13.20;10.40;;;29.40;91.70;;;;;;5030713;28;20056;-77
2023/06/09 09:36:08;;;;;;;12.73;11.03;;;29.40;92.00;;;;;;5014316;28;20029;-77
2023/06/09 09:38:34;;;;;;;21.50;10.60;;;29.40;92.00;;;;;;5014151;28;20030;-77
2023/06/09 09:41:00;;;;;;;10.98;10.07;;;29.40;92.30;;;;;;5030347;28;20045;-77
2023/06/09 09:43:27;;;;;;;11.90;10.93;;;29.50;92.50;;;;;;5030665;28;20037;-77
2023/06/09 09:45:55;;;;;;;11.63;10.40;;;29.60;92.10;;;;;;5013578;28;20589;-78
2023/06/09 09:48:23;;;;;;;11.15;10.25;;;29.80;92.00;;;;;;5043401;28;20041;-78
2023/06/09 09:50:54;;;;;;;10.98;10.10;;;29.60;91.70;;;;;;5044134;28;20068;-77
2023/06/09 09:53:24;;;;;;;16.75;11.68;;;29.60;91.60;;;;;;5013907;28;20048;-77
2023/06/09 09:55:53;;;;;;;11.40;10.45;;;29.50;91.70;;;;;;5015037;28;20041;-77
2023/06/09 09:58:19;;;;;;;12.75;9.25;;;29.50;92.20;;;;;;5018088;28;20029;-77
2023/06/09 10:00:46;;;;;;;10.52;9.52;;;29.50;92.20;;;;;;5033602;28;20041;-76
2023/06/09 10:03:19;;;;;;;10.05;9.10;;;29.40;92.30;;;;;;5035241;28;20044;-77
2023/06/09 10:05:46;;;;;;;9.48;8.68;;;29.50;92.40;;;;;;5033695;28;20032;-77
2023/06/09 10:08:22;;;;;;;11.88;9.48;;;29.70;92.40;;;;;;5033549;28;20470;-78
2023/06/09 10:10:49;;;;;;;10.00;8.75;;;29.60;92.40;;;;;;5017912;28;20486;-77
2023/06/09 10:13:16;;;;;;;10.45;8.70;;;29.60;92.50;;;;;;5034004;28;20032;-76
2023/06/09 10:15:43;;;;;;;9.57;8.57;;;29.50;92.90;;;;;;5033302;28;20045;-77
2023/06/09 10:18:09;;;;;;;10.23;8.13;;;29.30;93.40;;;;;;5033716;28;20359;-76
2023/06/09 10:20:35;;;;;;;11.43;8.63;;;29.30;93.60;;;;;;5033532;28;20518;-79
2023/06/09 10:23:01;;;;;;;10.10;8.10;;;29.20;93.40;;;;;;5033466;28;20060;-77
2023/06/09 10:25:27;;;;;;;12.02;8.80;;;29.40;93.30;;;;;;5016686;28;20037;-77
2023/06/09 10:27:53;;;;;;;10.45;8.77;;;29.50;93.10;;;;;;5033693;28;20017;-77
2023/06/09 10:30:20;;;;;;;9.25;8.55;;;29.60;93.00;;;;;;5033948;28;20478;-77
2023/06/09 10:33:11;;;;;;;9.68;8.65;;;29.50;92.70;;;;;;5033591;28;20040;-77
2023/06/09 10:35:38;;;;;;;10.93;8.15;;;29.50;93.50;;;;;;5035280;28;20360;-76
2023/06/09 10:38:28;;;;;;;9.35;8.32;;;29.50;93.10;;;;;;5033333;28;20025;-77
2023/06/09 10:41:11;;;;;;;8.93;8.02;;;29.40;93.30;;;;;;5032973;28;20036;-77
2023/06/09 10:44:02;;;;;;;8.93;8.15;;;29.40;93.40;;;;;;5034459;28;20025;-77
2023/06/09 10:46:58;;;;;;;8.50;7.78;;;29.30;93.40;;;;;;5031845;28;20029;-78
2023/06/09 10:49:37;;;;;;;9.10;8.30;;;29.20;93.40;;;;;;5002349;28;20050;-76
2023/06/09 10:52:08;;;;;;;11.32;7.65;;;29.40;93.30;;;;;;5029503;28;20036;-78
2023/06/09 10:54:35;;;;;;;8.23;7.53;;;29.40;93.10;;;;;;5033333;28;20036;-77
2023/06/09 10:57:04;;;;;;;9.63;8.68;;;29.60;92.80;;;;;;5032863;28;20045;-77
2023/06/09 10:59:30;;;;;;;11.05;9.48;;;29.70;92.70;;;;;;5033508;28;20034;-77
2023/06/09 11:02:02;;;;;;;11.50;9.65;;;29.80;92.70;;;;;;5033609;28;20033;-77
2023/06/09 11:04:46;;;;;;;10.98;9.52;;;29.90;92.70;;;;;;5032047;28;20049;-76
2023/06/09 11:07:16;;;;;;;10.32;8.80;;;29.80;92.70;;;;;;5033692;28;20482;-77
2023/06/09 11:09:51;;;;;;;10.02;9.13;;;29.90;92.50;;;;;;5033121;28;20052;-76
2023/06/09 11:12:29;;;;;;;9.45;8.75;;;29.90;92.60;;;;;;5033728;28;20026;-77
2023/06/09 11:15:02;;;;;;;10.18;8.93;;;29.90;92.40;;;;;;5033947;28;20036;-77
2023/06/09 11:17:37;;;;;;;12.43;8.32;;;30.00;92.50;;;;;;5031615;28;20510;-76
2023/06/09 11:20:10;;;;;;;8.60;7.80;;;29.80;92.80;;;;;;5031925;28;20033;-76
2023/06/09 11:22:42;;;;;;;9.27;8.23;;;29.60;92.80;;;;;;5014004;28;20057;-77
2023/06/09 11:25:08;;;;;;;9.95;9.15;;;29.50;93.10;;;;;;5028577;28;20041;-77
2023/06/09 11:27:35;;;;;;;10.38;9.38;;;29.70;92.80;;;;;;5048480;28;20046;-77
2023/06/09 11:30:04;;;;;;;9.80;9.10;;;29.90;92.00;;;;;;5065471;28;20521;-76
2023/06/09 11:32:43;;;;;;;11.60;10.70;;;30.20;92.60;;;;;;5032556;28;20029;-77
2023/06/09 11:35:09;;;;;;;13.73;12.82;;;30.50;91.80;;;;;;5033136;28;20025;-77
2023/06/09 11:37:36;;;;;;;13.45;12.38;;;30.70;90.50;;;;;;5015884;28;20029;-77
2023/06/09 11:40:04;;;;;;;15.05;13.85;;;30.80;90.30;;;;;;5032244;28;20433;-76
2023/06/09 11:42:32;;;;;;;13.25;12.30;;;30.90;89.20;;;;;;5031462;28;20409;-76
2023/06/09 11:45:00;;;;;;;11.27;10.35;;;30.80;88.80;;;;;;5032084;28;20029;-77
2023/06/09 11:47:27;;;;;;;11.95;11.07;;;30.50;89.10;;;;;;5036685;28;20064;-78
2023/06/09 11:50:05;;;;;;;11.27;10.30;;;30.40;89.90;;;;;;5052797;28;20472;-77
2023/06/09 11:52:32;;;;;;;9.95;8.98;;;30.30;88.90;;;;;;5032224;28;20052;-77
2023/06/09 11:55:01;;;;;;;10.25;9.35;;;30.20;89.40;;;;;;5015439;28;20034;-76
2023/06/09 11:57:27;;;;;;;11.38;10.40;;;30.20;89.60;;;;;;5031671;28;20488;-76
2023/06/09 11:59:54;;;;;;;10.05;8.85;;;30.10;90.10;;;;;;5031903;28;20033;-77
2023/06/09 12:02:20;;;;;;;9.57;8.52;;;30.10;90.40;;;;;;5030815;28;20044;-77
2023/06/09 12:04:48;;;;;;;8.82;8.13;;;30.10;90.70;;;;;;5031791;28;20418;-77
2023/06/09 12:07:15;;;;;;;9.00;8.05;;;29.90;90.90;;;;;;5031403;28;20033;-77
2023/06/09 12:09:42;;;;;;;9.35;7.68;;;29.90;91.00;;;;;;5031803;28;20037;-76
2023/06/09 12:12:09;;;;;;;9.65;8.65;;;29.90;91.00;;;;;;5032471;28;20030;-77
2023/06/09 12:14:35;;;;;;;8.85;7.30;;;29.90;91.30;;;;;;5031729;28;20378;-76
2023/06/09 12:17:01;;;;;;;7.45;6.80;;;29.80;91.30;;;;;;5030552;28;20061;-76
2023/06/09 12:19:30;;;;;;;7.25;6.65;;;29.60;91.70;;;;;;5030828;28;20038;-76
2023/06/09 12:21:57;;;;;;;8.10;6.75;;;29.50;92.40;;;;;;5015003;28;20491;-77
2023/06/09 12:24:23;;;;;;;10.30;6.68;;;29.40;92.20;;;;;;5031536;28;20044;-77
2023/06/09 12:26:49;;;;;;;7.32;6.63;;;29.40;92.30;;;;;;5031084;28;20498;-76
2023/06/09 12:29:15;;;;;;;13.27;6.88;;;29.30;92.40;;;;;;5031395;28;20041;-77
2023/06/09 12:31:49;;;;;;;10.80;6.82;;;29.30;92.70;;;;;;5030301;28;20390;-77
2023/06/09 12:34:29;;;;;;;9.88;7.40;;;29.30;92.50;;;;;;5031448;28;20029;-77
2023/06/09 12:36:56;;;;;;;7.55;6.97;;;29.20;91.00;;;;;;5031072;28;20025;-77
2023/06/09 12:39:23;;;;;;;8.80;8.10;;;29.10;90.20;;;;;;5047515;28;20422;-76
2023/06/09 12:41:49;;;;;;;8.90;7.82;;;29.00;91.70;;;;;;5047601;28;20040;-76
2023/06/09 12:44:23;;;;;;;8.60;7.80;;;28.70;94.20;;;;;;5030802;28;20029;-77